Monument Valley, Utah
Current Conditions -  °F | °C
As of 2:15 AM on Thursday 25 Dec 2014 (Local Time) from KBDG Reporting Station
Overcast Overcast  
Wind Chill: 31°   Ceiling: 7500
Heat Index: 31°   Visibility: 10mi
Dew Point: 15°   Wind: 0mph
Humidity: 52%   Direction: NA
Pressure: 29.72"   Gusts: NA
Location:  37.1°N, 110.32°W
Report Text: KBDG 250915Z AUTO 00000KT 10SM OVC075 M01/M09 A2972 RMK AO1 T10081095
Loading
Personal Weather Stations






























Interactive Weather Map New forecast layout! Learn more

10-Day Weather Forecast

Advertisements
Track Severe Weather on mobile